sensor_id;sensor_type;location;lat;lon;timestamp;temperature;humidity
21439;DHT22;10880;50.302;18.736;2023-04-07T00:02:34;7.80;53.50
21439;DHT22;10880;50.302;18.736;2023-04-07T00:05:07;7.80;53.60
21439;DHT22;10880;50.302;18.736;2023-04-07T00:08:00;7.80;53.70
21439;DHT22;10880;50.302;18.736;2023-04-07T00:10:33;7.80;53.60
21439;DHT22;10880;50.302;18.736;2023-04-07T00:13:26;7.80;53.60
21439;DHT22;10880;50.302;18.736;2023-04-07T00:15:58;7.80;53.60
21439;DHT22;10880;50.302;18.736;2023-04-07T00:18:55;7.80;53.80
21439;DHT22;10880;50.302;18.736;2023-04-07T00:21:31;7.80;53.80
21439;DHT22;10880;50.302;18.736;2023-04-07T00:24:24;7.80;53.80
21439;DHT22;10880;50.302;18.736;2023-04-07T00:26:56;7.80;53.90
21439;DHT22;10880;50.302;18.736;2023-04-07T00:29:50;7.80;53.90
21439;DHT22;10880;50.302;18.736;2023-04-07T00:32:22;7.80;53.90
21439;DHT22;10880;50.302;18.736;2023-04-07T00:35:16;7.70;54.00
21439;DHT22;10880;50.302;18.736;2023-04-07T00:37:48;7.70;54.00
21439;DHT22;10880;50.302;18.736;2023-04-07T00:40:42;7.80;54.10
21439;DHT22;10880;50.302;18.736;2023-04-07T00:43:14;7.80;54.10
21439;DHT22;10880;50.302;18.736;2023-04-07T00:46:13;7.80;54.10
21439;DHT22;10880;50.302;18.736;2023-04-07T00:48:50;7.80;54.20
21439;DHT22;10880;50.302;18.736;2023-04-07T00:51:44;7.80;54.10
21439;DHT22;10880;50.302;18.736;2023-04-07T00:54:18;7.70;54.20
21439;DHT22;10880;50.302;18.736;2023-04-07T00:57:11;7.80;54.10
21439;DHT22;10880;50.302;18.736;2023-04-07T00:59:44;7.80;54.10
21439;DHT22;10880;50.302;18.736;2023-04-07T01:08:59;7.70;54.20
21439;DHT22;10880;50.302;18.736;2023-04-07T01:11:43;7.70;54.20
21439;DHT22;10880;50.302;18.736;2023-04-07T01:14:41;7.70;54.20
21439;DHT22;10880;50.302;18.736;2023-04-07T01:17:34;7.70;54.30
21439;DHT22;10880;50.302;18.736;2023-04-07T01:20:30;7.70;54.20
21439;DHT22;10880;50.302;18.736;2023-04-07T01:23:06;7.70;53.80
21439;DHT22;10880;50.302;18.736;2023-04-07T01:26:11;7.60;54.40
21439;DHT22;10880;50.302;18.736;2023-04-07T01:29:24;7.60;54.40
21439;DHT22;10880;50.302;18.736;2023-04-07T01:32:18;7.60;54.60
21439;DHT22;10880;50.302;18.736;2023-04-07T01:34:54;7.60;54.40
21439;DHT22;10880;50.302;18.736;2023-04-07T01:37:50;7.60;54.40
21439;DHT22;10880;50.302;18.736;2023-04-07T01:40:31;7.60;54.60
21439;DHT22;10880;50.302;18.736;2023-04-07T01:43:25;7.60;54.50
21439;DHT22;10880;50.302;18.736;2023-04-07T01:46:00;7.60;54.70
21439;DHT22;10880;50.302;18.736;2023-04-07T01:48:55;7.60;54.60
21439;DHT22;10880;50.302;18.736;2023-04-07T01:51:29;7.60;54.70
21439;DHT22;10880;50.302;18.736;2023-04-07T01:54:24;7.60;54.70
21439;DHT22;10880;50.302;18.736;2023-04-07T01:57:18;7.60;54.70
21439;DHT22;10880;50.302;18.736;2023-04-07T01:59:56;7.60;54.60
21439;DHT22;10880;50.302;18.736;2023-04-07T02:03:01;7.50;54.50
21439;DHT22;10880;50.302;18.736;2023-04-07T02:05:38;7.50;54.70
21439;DHT22;10880;50.302;18.736;2023-04-07T02:08:32;7.50;54.40
21439;DHT22;10880;50.302;18.736;2023-04-07T02:11:10;7.50;54.90
21439;DHT22;10880;50.302;18.736;2023-04-07T02:14:10;7.50;54.80
21439;DHT22;10880;50.302;18.736;2023-04-07T02:16:58;7.50;54.50
21439;DHT22;10880;50.302;18.736;2023-04-07T02:19:52;7.50;54.90
21439;DHT22;10880;50.302;18.736;2023-04-07T02:22:26;7.50;54.80
21439;DHT22;10880;50.302;18.736;2023-04-07T02:25:27;7.50;54.80
21439;DHT22;10880;50.302;18.736;2023-04-07T02:28:00;7.50;55.00
21439;DHT22;10880;50.302;18.736;2023-04-07T02:30:54;7.50;55.50
21439;DHT22;10880;50.302;18.736;2023-04-07T02:33:30;7.50;54.80
21439;DHT22;10880;50.302;18.736;2023-04-07T02:36:25;7.50;55.00
21439;DHT22;10880;50.302;18.736;2023-04-07T02:38:59;7.50;54.90
21439;DHT22;10880;50.302;18.736;2023-04-07T02:41:52;7.50;55.00
21439;DHT22;10880;50.302;18.736;2023-04-07T02:44:25;7.50;54.90
21439;DHT22;10880;50.302;18.736;2023-04-07T02:47:19;7.50;55.00
21439;DHT22;10880;50.302;18.736;2023-04-07T02:49:51;7.50;55.00
21439;DHT22;10880;50.302;18.736;2023-04-07T02:52:47;7.50;55.10
21439;DHT22;10880;50.302;18.736;2023-04-07T02:55:19;7.50;55.00
21439;DHT22;10880;50.302;18.736;2023-04-07T02:58:13;7.50;55.10
21439;DHT22;10880;50.302;18.736;2023-04-07T03:00:47;7.50;55.00
21439;DHT22;10880;50.302;18.736;2023-04-07T03:03:43;7.50;55.20
21439;DHT22;10880;50.302;18.736;2023-04-07T03:06:21;7.50;55.00
21439;DHT22;10880;50.302;18.736;2023-04-07T03:09:19;7.50;55.10
21439;DHT22;10880;50.302;18.736;2023-04-07T03:11:52;7.50;55.10
21439;DHT22;10880;50.302;18.736;2023-04-07T03:14:48;7.50;55.10
21439;DHT22;10880;50.302;18.736;2023-04-07T03:17:22;7.50;55.10
21439;DHT22;10880;50.302;18.736;2023-04-07T03:20:18;7.50;55.20
21439;DHT22;10880;50.302;18.736;2023-04-07T03:22:50;7.50;55.20
21439;DHT22;10880;50.302;18.736;2023-04-07T03:25:44;7.50;55.30
21439;DHT22;10880;50.302;18.736;2023-04-07T03:28:16;7.50;55.20
21439;DHT22;10880;50.302;18.736;2023-04-07T03:31:10;7.50;55.20
21439;DHT22;10880;50.302;18.736;2023-04-07T03:33:43;7.50;55.30
21439;DHT22;10880;50.302;18.736;2023-04-07T03:36:36;7.50;55.30
21439;DHT22;10880;50.302;18.736;2023-04-07T03:39:09;7.50;55.20
21439;DHT22;10880;50.302;18.736;2023-04-07T03:42:03;7.50;55.30
21439;DHT22;10880;50.302;18.736;2023-04-07T03:44:35;7.50;55.20
21439;DHT22;10880;50.302;18.736;2023-04-07T03:47:29;7.50;55.30
21439;DHT22;10880;50.302;18.736;2023-04-07T03:50:04;7.50;55.40
21439;DHT22;10880;50.302;18.736;2023-04-07T03:53:23;7.50;55.50
21439;DHT22;10880;50.302;18.736;2023-04-07T03:56:40;7.50;55.50
21439;DHT22;10880;50.302;18.736;2023-04-07T03:59:16;7.50;55.50
21439;DHT22;10880;50.302;18.736;2023-04-07T04:02:14;7.50;55.50
21439;DHT22;10880;50.302;18.736;2023-04-07T04:04:51;7.50;55.90
21439;DHT22;10880;50.302;18.736;2023-04-07T04:07:45;7.50;55.40
21439;DHT22;10880;50.302;18.736;2023-04-07T04:10:19;7.50;55.60
21439;DHT22;10880;50.302;18.736;2023-04-07T04:13:13;7.40;55.60
21439;DHT22;10880;50.302;18.736;2023-04-07T04:15:46;7.40;55.50
21439;DHT22;10880;50.302;18.736;2023-04-07T04:18:39;7.40;55.60
21439;DHT22;10880;50.302;18.736;2023-04-07T04:21:14;7.40;55.60
21439;DHT22;10880;50.302;18.736;2023-04-07T04:24:12;7.40;55.70
21439;DHT22;10880;50.302;18.736;2023-04-07T04:26:46;7.40;55.70
21439;DHT22;10880;50.302;18.736;2023-04-07T04:29:39;7.30;55.70
21439;DHT22;10880;50.302;18.736;2023-04-07T04:32:13;7.30;55.80
21439;DHT22;10880;50.302;18.736;2023-04-07T04:35:07;7.30;55.80
21439;DHT22;10880;50.302;18.736;2023-04-07T04:37:50;7.30;55.80
21439;DHT22;10880;50.302;18.736;2023-04-07T04:40:44;7.30;55.80
21439;DHT22;10880;50.302;18.736;2023-04-07T04:43:20;7.30;55.80
21439;DHT22;10880;50.302;18.736;2023-04-07T04:46:15;7.30;56.00
21439;DHT22;10880;50.302;18.736;2023-04-07T04:48:50;7.30;56.10
21439;DHT22;10880;50.302;18.736;2023-04-07T04:51:44;7.30;56.10
21439;DHT22;10880;50.302;18.736;2023-04-07T04:54:18;7.40;56.10
21439;DHT22;10880;50.302;18.736;2023-04-07T04:57:12;7.30;56.10
21439;DHT22;10880;50.302;18.736;2023-04-07T04:59:45;7.40;56.00
21439;DHT22;10880;50.302;18.736;2023-04-07T05:02:42;7.30;56.10
21439;DHT22;10880;50.302;18.736;2023-04-07T05:05:15;7.40;56.40
21439;DHT22;10880;50.302;18.736;2023-04-07T05:08:10;7.30;56.20
21439;DHT22;10880;50.302;18.736;2023-04-07T05:10:43;7.30;56.10
21439;DHT22;10880;50.302;18.736;2023-04-07T05:13:39;7.30;56.20
21439;DHT22;10880;50.302;18.736;2023-04-07T05:16:11;7.30;56.20
21439;DHT22;10880;50.302;18.736;2023-04-07T05:19:05;7.30;56.20
21439;DHT22;10880;50.302;18.736;2023-04-07T05:21:38;7.30;56.30
21439;DHT22;10880;50.302;18.736;2023-04-07T05:24:33;7.30;56.30
21439;DHT22;10880;50.302;18.736;2023-04-07T05:27:06;7.30;56.20
21439;DHT22;10880;50.302;18.736;2023-04-07T05:30:03;7.30;56.10
21439;DHT22;10880;50.302;18.736;2023-04-07T05:32:36;7.30;56.70
21439;DHT22;10880;50.302;18.736;2023-04-07T05:35:39;7.30;56.30
21439;DHT22;10880;50.302;18.736;2023-04-07T05:38:12;7.30;56.50
21439;DHT22;10880;50.302;18.736;2023-04-07T05:41:10;7.30;56.50
21439;DHT22;10880;50.302;18.736;2023-04-07T05:43:43;7.30;56.40
21439;DHT22;10880;50.302;18.736;2023-04-07T05:46:39;7.30;56.40
21439;DHT22;10880;50.302;18.736;2023-04-07T05:49:13;7.40;56.60
21439;DHT22;10880;50.302;18.736;2023-04-07T05:52:14;7.40;56.60
21439;DHT22;10880;50.302;18.736;2023-04-07T05:54:53;7.40;56.40
21439;DHT22;10880;50.302;18.736;2023-04-07T05:57:46;7.40;56.60
21439;DHT22;10880;50.302;18.736;2023-04-07T06:00:21;7.40;56.50
21439;DHT22;10880;50.302;18.736;2023-04-07T06:03:20;7.40;56.60
21439;DHT22;10880;50.302;18.736;2023-04-07T06:05:59;7.40;56.50
21439;DHT22;10880;50.302;18.736;2023-04-07T06:08:52;7.40;56.60
21439;DHT22;10880;50.302;18.736;2023-04-07T06:11:25;7.40;56.60
21439;DHT22;10880;50.302;18.736;2023-04-07T06:14:20;7.40;56.60
21439;DHT22;10880;50.302;18.736;2023-04-07T06:16:53;7.50;56.80
21439;DHT22;10880;50.302;18.736;2023-04-07T06:19:47;7.50;56.80
21439;DHT22;10880;50.302;18.736;2023-04-07T06:22:20;7.40;56.70
21439;DHT22;10880;50.302;18.736;2023-04-07T06:25:14;7.10;56.60
21439;DHT22;10880;50.302;18.736;2023-04-07T06:27:47;7.40;56.70
21439;DHT22;10880;50.302;18.736;2023-04-07T06:30:40;7.50;56.70
21439;DHT22;10880;50.302;18.736;2023-04-07T06:33:14;7.40;56.60
21439;DHT22;10880;50.302;18.736;2023-04-07T06:36:11;7.50;56.90
21439;DHT22;10880;50.302;18.736;2023-04-07T06:38:43;7.50;57.00
21439;DHT22;10880;50.302;18.736;2023-04-07T06:41:37;7.50;56.90
21439;DHT22;10880;50.302;18.736;2023-04-07T06:44:11;7.50;56.80
21439;DHT22;10880;50.302;18.736;2023-04-07T06:47:07;7.50;57.00
21439;DHT22;10880;50.302;18.736;2023-04-07T06:49:41;7.50;57.10
21439;DHT22;10880;50.302;18.736;2023-04-07T06:52:34;7.50;57.00
21439;DHT22;10880;50.302;18.736;2023-04-07T06:55:07;7.50;57.00
21439;DHT22;10880;50.302;18.736;2023-04-07T06:58:00;7.70;57.10
21439;DHT22;10880;50.302;18.736;2023-04-07T07:00:32;7.50;57.10
21439;DHT22;10880;50.302;18.736;2023-04-07T07:03:26;7.50;57.10
21439;DHT22;10880;50.302;18.736;2023-04-07T07:06:00;7.50;57.10
21439;DHT22;10880;50.302;18.736;2023-04-07T07:08:57;7.50;57.20
21439;DHT22;10880;50.302;18.736;2023-04-07T07:11:32;7.50;57.20
21439;DHT22;10880;50.302;18.736;2023-04-07T07:14:27;7.50;57.10
21439;DHT22;10880;50.302;18.736;2023-04-07T07:17:00;8.20;57.50
21439;DHT22;10880;50.302;18.736;2023-04-07T07:19:55;7.50;57.20
21439;DHT22;10880;50.302;18.736;2023-04-07T07:22:28;7.50;57.20
21439;DHT22;10880;50.302;18.736;2023-04-07T07:25:21;7.50;57.20
21439;DHT22;10880;50.302;18.736;2023-04-07T07:27:55;7.50;57.20
21439;DHT22;10880;50.302;18.736;2023-04-07T07:30:48;7.50;57.30
21439;DHT22;10880;50.302;18.736;2023-04-07T07:33:21;7.50;57.30
21439;DHT22;10880;50.302;18.736;2023-04-07T07:36:14;7.60;57.40
21439;DHT22;10880;50.302;18.736;2023-04-07T07:38:49;7.60;57.40
21439;DHT22;10880;50.302;18.736;2023-04-07T07:41:42;7.60;57.50
21439;DHT22;10880;50.302;18.736;2023-04-07T07:44:15;7.60;57.50
21439;DHT22;10880;50.302;18.736;2023-04-07T07:47:08;7.60;57.40
21439;DHT22;10880;50.302;18.736;2023-04-07T07:49:40;7.60;57.50
21439;DHT22;10880;50.302;18.736;2023-04-07T07:52:43;7.60;57.30
21439;DHT22;10880;50.302;18.736;2023-04-07T07:55:36;7.70;57.70
21439;DHT22;10880;50.302;18.736;2023-04-07T07:58:29;7.70;57.70
21439;DHT22;10880;50.302;18.736;2023-04-07T08:01:01;7.70;57.60
21439;DHT22;10880;50.302;18.736;2023-04-07T08:03:55;7.70;57.60
21439;DHT22;10880;50.302;18.736;2023-04-07T08:06:28;7.70;57.50
21439;DHT22;10880;50.302;18.736;2023-04-07T08:09:21;7.70;57.50
21439;DHT22;10880;50.302;18.736;2023-04-07T08:11:54;7.70;57.60
21439;DHT22;10880;50.302;18.736;2023-04-07T08:14:49;7.70;57.40
21439;DHT22;10880;50.302;18.736;2023-04-07T08:17:23;7.70;57.50
21439;DHT22;10880;50.302;18.736;2023-04-07T08:20:18;7.80;57.30
21439;DHT22;10880;50.302;18.736;2023-04-07T08:25:47;10.40;58.60
21439;DHT22;10880;50.302;18.736;2023-04-07T08:28:24;7.80;57.40
21439;DHT22;10880;50.302;18.736;2023-04-07T08:31:17;7.80;57.50
21439;DHT22;10880;50.302;18.736;2023-04-07T08:33:50;7.80;57.50
21439;DHT22;10880;50.302;18.736;2023-04-07T08:36:44;7.80;57.90
21439;DHT22;10880;50.302;18.736;2023-04-07T08:39:16;7.90;57.90
21439;DHT22;10880;50.302;18.736;2023-04-07T08:42:16;7.80;57.80
21439;DHT22;10880;50.302;18.736;2023-04-07T08:44:50;7.90;57.70
21439;DHT22;10880;50.302;18.736;2023-04-07T08:47:45;7.90;58.00
21439;DHT22;10880;50.302;18.736;2023-04-07T08:50:25;7.90;58.00
21439;DHT22;10880;50.302;18.736;2023-04-07T08:53:25;8.00;57.90
21439;DHT22;10880;50.302;18.736;2023-04-07T08:56:01;8.00;58.20
21439;DHT22;10880;50.302;18.736;2023-04-07T08:58:54;8.00;58.00
21439;DHT22;10880;50.302;18.736;2023-04-07T09:01:28;7.80;57.80
21439;DHT22;10880;50.302;18.736;2023-04-07T09:04:22;8.10;58.10
21439;DHT22;10880;50.302;18.736;2023-04-07T09:06:56;8.10;57.90
21439;DHT22;10880;50.302;18.736;2023-04-07T09:09:49;8.50;58.10
21439;DHT22;10880;50.302;18.736;2023-04-07T09:12:23;8.10;58.00
21439;DHT22;10880;50.302;18.736;2023-04-07T09:15:19;8.10;58.10
21439;DHT22;10880;50.302;18.736;2023-04-07T09:17:55;8.10;58.20
21439;DHT22;10880;50.302;18.736;2023-04-07T09:21:03;8.10;57.80
21439;DHT22;10880;50.302;18.736;2023-04-07T09:23:40;8.10;58.30
21439;DHT22;10880;50.302;18.736;2023-04-07T09:26:34;8.20;58.30
21439;DHT22;10880;50.302;18.736;2023-04-07T09:29:08;8.10;58.00
21439;DHT22;10880;50.302;18.736;2023-04-07T09:32:01;8.10;57.90
21439;DHT22;10880;50.302;18.736;2023-04-07T09:34:37;8.10;58.00
21439;DHT22;10880;50.302;18.736;2023-04-07T09:37:30;8.10;58.20
21439;DHT22;10880;50.302;18.736;2023-04-07T09:40:04;8.10;58.10
21439;DHT22;10880;50.302;18.736;2023-04-07T09:42:57;8.10;58.30
21439;DHT22;10880;50.302;18.736;2023-04-07T09:45:30;8.10;58.20
21439;DHT22;10880;50.302;18.736;2023-04-07T09:48:24;8.10;58.30
21439;DHT22;10880;50.302;18.736;2023-04-07T09:51:05;8.10;58.20
21439;DHT22;10880;50.302;18.736;2023-04-07T09:53:59;8.10;58.40
21439;DHT22;10880;50.302;18.736;2023-04-07T09:56:45;8.10;58.50
21439;DHT22;10880;50.302;18.736;2023-04-07T09:59:41;8.20;58.50
21439;DHT22;10880;50.302;18.736;2023-04-07T10:02:17;8.10;58.60
21439;DHT22;10880;50.302;18.736;2023-04-07T10:05:11;8.20;58.60
21439;DHT22;10880;50.302;18.736;2023-04-07T10:07:44;8.20;58.60
21439;DHT22;10880;50.302;18.736;2023-04-07T10:10:40;8.30;58.70
21439;DHT22;10880;50.302;18.736;2023-04-07T10:13:14;8.30;58.80
21439;DHT22;10880;50.302;18.736;2023-04-07T10:16:10;8.30;58.60
21439;DHT22;10880;50.302;18.736;2023-04-07T10:18:46;8.30;58.80
21439;DHT22;10880;50.302;18.736;2023-04-07T10:21:43;8.30;58.70
21439;DHT22;10880;50.302;18.736;2023-04-07T10:24:43;8.40;58.60
21439;DHT22;10880;50.302;18.736;2023-04-07T10:27:48;8.40;58.80
21439;DHT22;10880;50.302;18.736;2023-04-07T10:30:27;8.40;58.60
21439;DHT22;10880;50.302;18.736;2023-04-07T10:33:46;8.40;58.60
21439;DHT22;10880;50.302;18.736;2023-04-07T10:36:20;8.40;58.70
21439;DHT22;10880;50.302;18.736;2023-04-07T10:41:47;8.40;58.30
21439;DHT22;10880;50.302;18.736;2023-04-07T10:47:15;8.40;58.50
21439;DHT22;10880;50.302;18.736;2023-04-07T10:50:16;8.40;58.50
21439;DHT22;10880;50.302;18.736;2023-04-07T10:53:06;8.40;58.80
21439;DHT22;10880;50.302;18.736;2023-04-07T10:56:02;8.40;58.80
21439;DHT22;10880;50.302;18.736;2023-04-07T10:59:13;8.40;58.70
21439;DHT22;10880;50.302;18.736;2023-04-07T11:01:47;8.40;58.70
21439;DHT22;10880;50.302;18.736;2023-04-07T11:04:45;8.50;58.80
21439;DHT22;10880;50.302;18.736;2023-04-07T11:07:18;8.50;58.80
21439;DHT22;10880;50.302;18.736;2023-04-07T11:10:13;8.50;58.80
21439;DHT22;10880;50.302;18.736;2023-04-07T11:12:58;8.50;58.80
21439;DHT22;10880;50.302;18.736;2023-04-07T11:15:51;8.50;58.90
21439;DHT22;10880;50.302;18.736;2023-04-07T11:18:24;8.60;58.90
21439;DHT22;10880;50.302;18.736;2023-04-07T11:21:18;8.60;58.90
21439;DHT22;10880;50.302;18.736;2023-04-07T11:23:53;8.60;59.00
21439;DHT22;10880;50.302;18.736;2023-04-07T11:26:47;8.60;58.90
21439;DHT22;10880;50.302;18.736;2023-04-07T11:29:27;8.60;58.80
21439;DHT22;10880;50.302;18.736;2023-04-07T11:32:23;8.60;58.90
21439;DHT22;10880;50.302;18.736;2023-04-07T11:35:09;8.60;58.90
21439;DHT22;10880;50.302;18.736;2023-04-07T11:38:06;8.70;58.90
21439;DHT22;10880;50.302;18.736;2023-04-07T11:40:39;8.70;58.90
21439;DHT22;10880;50.302;18.736;2023-04-07T11:43:36;8.70;59.00
21439;DHT22;10880;50.302;18.736;2023-04-07T11:46:16;8.70;58.90
21439;DHT22;10880;50.302;18.736;2023-04-07T11:49:11;8.70;59.10
21439;DHT22;10880;50.302;18.736;2023-04-07T11:51:45;8.80;59.00
21439;DHT22;10880;50.302;18.736;2023-04-07T11:54:42;8.80;59.00
21439;DHT22;10880;50.302;18.736;2023-04-07T11:57:36;8.80;59.20
21439;DHT22;10880;50.302;18.736;2023-04-07T12:00:10;8.80;58.90
21439;DHT22;10880;50.302;18.736;2023-04-07T12:03:10;8.80;59.10
21439;DHT22;10880;50.302;18.736;2023-04-07T12:05:46;8.90;59.30
21439;DHT22;10880;50.302;18.736;2023-04-07T12:08:40;8.90;59.00
21439;DHT22;10880;50.302;18.736;2023-04-07T12:11:15;8.90;59.10
21439;DHT22;10880;50.302;18.736;2023-04-07T12:14:08;8.90;59.20
21439;DHT22;10880;50.302;18.736;2023-04-07T12:16:43;8.90;58.90
21439;DHT22;10880;50.302;18.736;2023-04-07T12:19:37;9.00;59.00
21439;DHT22;10880;50.302;18.736;2023-04-07T12:22:11;9.00;59.10
21439;DHT22;10880;50.302;18.736;2023-04-07T12:25:04;9.00;59.00
21439;DHT22;10880;50.302;18.736;2023-04-07T12:27:38;9.00;59.00
21439;DHT22;10880;50.302;18.736;2023-04-07T12:30:32;9.00;59.10
21439;DHT22;10880;50.302;18.736;2023-04-07T12:33:06;9.00;59.00
21439;DHT22;10880;50.302;18.736;2023-04-07T12:35:59;9.00;59.10
21439;DHT22;10880;50.302;18.736;2023-04-07T12:38:33;9.00;59.10
21439;DHT22;10880;50.302;18.736;2023-04-07T12:41:26;9.00;59.10
21439;DHT22;10880;50.302;18.736;2023-04-07T12:44:02;9.00;59.10
21439;DHT22;10880;50.302;18.736;2023-04-07T12:46:58;9.00;59.20
21439;DHT22;10880;50.302;18.736;2023-04-07T12:49:31;9.00;59.10
21439;DHT22;10880;50.302;18.736;2023-04-07T12:52:27;9.00;59.20
21439;DHT22;10880;50.302;18.736;2023-04-07T12:55:00;9.00;59.30
21439;DHT22;10880;50.302;18.736;2023-04-07T12:57:58;9.00;58.80
21439;DHT22;10880;50.302;18.736;2023-04-07T13:00:33;9.00;59.30
21439;DHT22;10880;50.302;18.736;2023-04-07T13:03:26;9.00;59.10
21439;DHT22;10880;50.302;18.736;2023-04-07T13:05:59;9.00;59.80
21439;DHT22;10880;50.302;18.736;2023-04-07T13:08:52;9.00;58.80
21439;DHT22;10880;50.302;18.736;2023-04-07T13:11:25;9.00;59.20
21439;DHT22;10880;50.302;18.736;2023-04-07T13:14:18;9.00;59.10
21439;DHT22;10880;50.302;18.736;2023-04-07T13:16:51;9.00;59.10
21439;DHT22;10880;50.302;18.736;2023-04-07T13:19:46;9.00;59.20
21439;DHT22;10880;50.302;18.736;2023-04-07T13:22:19;9.10;59.10
21439;DHT22;10880;50.302;18.736;2023-04-07T13:25:12;9.10;59.20
21439;DHT22;10880;50.302;18.736;2023-04-07T13:27:45;9.10;59.20
21439;DHT22;10880;50.302;18.736;2023-04-07T13:30:38;9.10;59.30
21439;DHT22;10880;50.302;18.736;2023-04-07T13:33:12;9.10;59.20
21439;DHT22;10880;50.302;18.736;2023-04-07T13:36:05;9.10;59.20
21439;DHT22;10880;50.302;18.736;2023-04-07T13:38:38;9.10;59.20
21439;DHT22;10880;50.302;18.736;2023-04-07T13:41:31;9.10;59.20
21439;DHT22;10880;50.302;18.736;2023-04-07T13:44:05;9.10;59.20
21439;DHT22;10880;50.302;18.736;2023-04-07T13:46:59;9.10;59.30
21439;DHT22;10880;50.302;18.736;2023-04-07T13:49:32;9.10;59.30
21439;DHT22;10880;50.302;18.736;2023-04-07T13:52:25;9.10;59.30
21439;DHT22;10880;50.302;18.736;2023-04-07T13:55:02;9.10;59.30
21439;DHT22;10880;50.302;18.736;2023-04-07T13:57:59;9.10;59.20
21439;DHT22;10880;50.302;18.736;2023-04-07T14:00:32;9.10;59.30
21439;DHT22;10880;50.302;18.736;2023-04-07T14:03:25;9.10;59.30
21439;DHT22;10880;50.302;18.736;2023-04-07T14:05:59;9.10;59.30
21439;DHT22;10880;50.302;18.736;2023-04-07T14:08:53;9.20;59.10
21439;DHT22;10880;50.302;18.736;2023-04-07T14:11:28;9.10;59.20
21439;DHT22;10880;50.302;18.736;2023-04-07T14:14:25;9.10;59.30
21439;DHT22;10880;50.302;18.736;2023-04-07T14:16:58;9.20;59.40
21439;DHT22;10880;50.302;18.736;2023-04-07T14:19:55;9.10;59.50
21439;DHT22;10880;50.302;18.736;2023-04-07T14:22:28;9.10;59.30
21439;DHT22;10880;50.302;18.736;2023-04-07T14:25:21;9.10;59.50
21439;DHT22;10880;50.302;18.736;2023-04-07T14:27:54;9.10;59.50
21439;DHT22;10880;50.302;18.736;2023-04-07T14:30:47;9.10;59.50
21439;DHT22;10880;50.302;18.736;2023-04-07T14:33:22;9.10;59.60
21439;DHT22;10880;50.302;18.736;2023-04-07T14:36:15;9.10;59.30
21439;DHT22;10880;50.302;18.736;2023-04-07T14:38:49;9.10;59.70
21439;DHT22;10880;50.302;18.736;2023-04-07T14:41:45;9.10;59.60
21439;DHT22;10880;50.302;18.736;2023-04-07T14:44:20;9.10;59.70
21439;DHT22;10880;50.302;18.736;2023-04-07T14:47:17;9.10;59.60
21439;DHT22;10880;50.302;18.736;2023-04-07T14:49:51;9.20;59.70
21439;DHT22;10880;50.302;18.736;2023-04-07T14:52:46;9.20;59.70
21439;DHT22;10880;50.302;18.736;2023-04-07T14:55:19;9.20;59.70
21439;DHT22;10880;50.302;18.736;2023-04-07T14:58:12;9.20;59.80
21439;DHT22;10880;50.302;18.736;2023-04-07T15:00:45;9.20;59.70
21439;DHT22;10880;50.302;18.736;2023-04-07T15:03:38;9.20;59.90
21439;DHT22;10880;50.302;18.736;2023-04-07T15:06:14;9.20;59.90
21439;DHT22;10880;50.302;18.736;2023-04-07T15:09:07;9.30;59.90
21439;DHT22;10880;50.302;18.736;2023-04-07T15:11:41;9.30;60.00
21439;DHT22;10880;50.302;18.736;2023-04-07T15:14:34;9.30;59.60
21439;DHT22;10880;50.302;18.736;2023-04-07T15:17:07;9.30;59.90
21439;DHT22;10880;50.302;18.736;2023-04-07T15:20:00;9.30;60.00
21439;DHT22;10880;50.302;18.736;2023-04-07T15:22:34;9.30;59.70
21439;DHT22;10880;50.302;18.736;2023-04-07T15:25:28;9.30;59.90
21439;DHT22;10880;50.302;18.736;2023-04-07T15:28:01;9.40;60.00
21439;DHT22;10880;50.302;18.736;2023-04-07T15:30:54;9.40;60.00
21439;DHT22;10880;50.302;18.736;2023-04-07T15:33:27;9.40;59.90
21439;DHT22;10880;50.302;18.736;2023-04-07T15:36:20;9.40;60.00
21439;DHT22;10880;50.302;18.736;2023-04-07T15:38:53;9.40;59.90
21439;DHT22;10880;50.302;18.736;2023-04-07T15:41:47;9.50;60.00
21439;DHT22;10880;50.302;18.736;2023-04-07T15:44:20;9.50;59.90
21439;DHT22;10880;50.302;18.736;2023-04-07T15:47:16;9.50;60.00
21439;DHT22;10880;50.302;18.736;2023-04-07T15:49:50;9.50;59.90
21439;DHT22;10880;50.302;18.736;2023-04-07T15:52:43;9.50;60.00
21439;DHT22;10880;50.302;18.736;2023-04-07T15:55:16;9.50;60.10
21439;DHT22;10880;50.302;18.736;2023-04-07T15:58:09;9.50;60.00
21439;DHT22;10880;50.302;18.736;2023-04-07T16:00:43;9.50;60.00
21439;DHT22;10880;50.302;18.736;2023-04-07T16:03:36;9.50;60.10
21439;DHT22;10880;50.302;18.736;2023-04-07T16:06:09;9.60;60.10
21439;DHT22;10880;50.302;18.736;2023-04-07T16:09:02;9.60;60.10
21439;DHT22;10880;50.302;18.736;2023-04-07T16:11:36;9.60;60.10
21439;DHT22;10880;50.302;18.736;2023-04-07T16:14:32;9.60;60.10
21439;DHT22;10880;50.302;18.736;2023-04-07T16:17:05;9.60;59.90
21439;DHT22;10880;50.302;18.736;2023-04-07T16:19:58;9.60;60.00
21439;DHT22;10880;50.302;18.736;2023-04-07T16:22:31;9.70;60.00
21439;DHT22;10880;50.302;18.736;2023-04-07T16:25:24;9.70;60.10
21439;DHT22;10880;50.302;18.736;2023-04-07T16:27:57;9.70;60.00
21439;DHT22;10880;50.302;18.736;2023-04-07T16:30:52;9.70;60.00
21439;DHT22;10880;50.302;18.736;2023-04-07T16:33:25;9.70;59.60
21439;DHT22;10880;50.302;18.736;2023-04-07T16:36:20;9.70;60.00
21439;DHT22;10880;50.302;18.736;2023-04-07T16:38:53;9.70;59.90
21439;DHT22;10880;50.302;18.736;2023-04-07T16:41:46;9.70;60.00
21439;DHT22;10880;50.302;18.736;2023-04-07T16:44:19;9.70;60.00
21439;DHT22;10880;50.302;18.736;2023-04-07T16:47:12;9.70;60.00
21439;DHT22;10880;50.302;18.736;2023-04-07T16:49:45;9.70;60.00
21439;DHT22;10880;50.302;18.736;2023-04-07T16:52:38;9.70;60.00
21439;DHT22;10880;50.302;18.736;2023-04-07T16:55:14;9.70;60.10
21439;DHT22;10880;50.302;18.736;2023-04-07T16:58:09;9.70;60.10
21439;DHT22;10880;50.302;18.736;2023-04-07T17:00:43;9.70;59.60
21439;DHT22;10880;50.302;18.736;2023-04-07T17:03:37;9.70;60.00
21439;DHT22;10880;50.302;18.736;2023-04-07T17:06:10;9.70;60.00
21439;DHT22;10880;50.302;18.736;2023-04-07T17:09:03;9.70;60.10
21439;DHT22;10880;50.302;18.736;2023-04-07T17:11:36;9.70;60.00
21439;DHT22;10880;50.302;18.736;2023-04-07T17:14:29;9.70;60.00
21439;DHT22;10880;50.302;18.736;2023-04-07T17:17:02;9.70;60.00
21439;DHT22;10880;50.302;18.736;2023-04-07T17:19:55;9.70;60.90
21439;DHT22;10880;50.302;18.736;2023-04-07T17:22:29;9.80;60.10
21439;DHT22;10880;50.302;18.736;2023-04-07T17:25:24;9.80;59.80
21439;DHT22;10880;50.302;18.736;2023-04-07T17:27:59;9.80;60.30
21439;DHT22;10880;50.302;18.736;2023-04-07T17:30:56;9.80;59.80
21439;DHT22;10880;50.302;18.736;2023-04-07T17:33:31;9.80;59.90
21439;DHT22;10880;50.302;18.736;2023-04-07T17:36:29;9.80;59.70
21439;DHT22;10880;50.302;18.736;2023-04-07T17:39:05;9.60;59.70